Saraland, Alabama
Current Conditions -  °F | °C
As of 7:53 AM on Friday 19 Dec 2014 (Local Time) from KBFM Reporting Station
Light Rain Light Rain  
Wind Chill: 51°   Ceiling: 6000
Heat Index: 51°   Visibility: 9mi
Dew Point: 45°   Wind: 7mph
Humidity: 80%   Direction: 360°N
Pressure: 30.17"   Gusts: NA
Location:  30.8°N, 88.09°W
Report Text: KBFM 191353Z 36006KT 9SM -RA FEW023 BKN060 OVC100 11/07 A3017 RMK AO2 RAB1257 SLP214 P0005 T01060072
Loading
Personal Weather Stations






























Interactive Weather Map New forecast layout! Learn more

10-Day Weather Forecast

Advertisements
Track Severe Weather on mobile